Date,TemperatureHighF,TemperatureAvgF,TemperatureLowF,DewpointHighF,DewpointAvgF,DewpointLowF,HumidityHigh,HumidityAvg,HumidityLow,PressureMaxIn,PressureMinIn,WindSpeedMaxMPH,WindSpeedAvgMPH,GustSpeedMaxMPH,PrecipitationSumIn
2013-1-1,69.0,61.0,54.0,52.6,-3.2,-44.7,56,24,1,30.26,29.99,21,10,21,0.02
2013-1-2,54.0,51.0,44.0,-44.7,-46.6,-50.9,1,1,1,30.26,29.94,23,8,23,0.16
2013-1-3,46.0,42.4,38.0,-49.6,-51.8,-54.6,1,1,1,30.34,30.19,20,10,20,0.08
2013-1-4,53.0,42.5,34.0,48.2,-25.8,-57.1,96,24,1,30.40,30.26,19,8,19,0.01
2013-1-5,50.0,41.6,32.0,45.3,-24.3,-58.3,93,26,1,30.47,30.35,13,7,17,0.00
2013-1-6,51.0,47.9,43.0,-46.6,-48.5,-51.5,1,1,1,30.36,30.12,17,5,17,0.02
2013-1-7,52.0,47.1,40.0,10.1,-47.1,-53.3,19,1,1,30.46,30.19,26,14,26,0.00
2013-1-8,59.0,48.2,38.0,-42.9,-48.3,-54.6,1,1,1,30.50,30.38,19,10,19,0.00
2013-1-9,61.0,56.6,51.0,-40.5,-43.2,-46.6,1,1,1,30.44,30.38,13,7,14,0.00
2013-1-10,58.0,57.1,57.0,-42.3,-42.8,-42.9,1,1,1,30.45,30.42,9,6,9,0.00
2013-1-19,53.0,50.9,42.0,49.9,-37.2,-52.1,96,8,1,30.55,30.23,11,7,15,0.00
2013-1-20,66.0,57.5,51.0,53.0,0.3,-46.6,93,31,1,30.13,30.00,18,8,18,0.00
2013-1-21,60.0,51.8,43.0,1.7,-45.0,-51.5,12,1,1,30.13,29.92,20,8,20,0.00
2013-1-22,52.0,43.1,34.0,9.4,-42.0,-57.1,23,3,1,30.35,29.99,24,10,28,0.00
2013-1-23,45.0,35.5,27.0,43.2,-47.3,-61.4,97,5,1,30.48,30.17,21,10,21,0.00
2013-1-24,49.0,40.2,27.0,4.2,-52.0,-61.4,30,1,1,30.62,30.02,39,16,39,0.00
2013-1-25,41.0,31.3,23.0,-29.0,-58.4,-63.9,7,1,1,30.62,30.20,26,12,27,0.06
2013-1-26,49.0,37.5,31.0,-47.8,-54.9,-58.9,1,1,1,30.48,30.18,18,9,18,0.00
2013-1-27,43.0,35.8,28.0,-51.5,-56.0,-61.4,1,1,1,30.64,30.47,28,12,28,0.00
2013-1-28,52.0,44.3,35.0,-46.6,-50.7,-56.4,1,1,1,30.60,30.31,15,6,15,0.00
2013-1-29,71.0,56.5,49.0,-34.5,-43.2,-47.8,1,1,1,30.31,30.14,26,10,26,0.00
2013-1-30,61.0,57.4,54.0,-40.5,-42.7,-45.3,1,1,1,30.17,29.64,29,13,29,0.01
2013-1-31,69.0,52.6,46.0,52.6,-21.1,-50.3,95,19,1,30.26,29.56,37,18,52,0.23
2013-2-1,54.0,44.2,32.0,46.3,-9.6,-58.3,85,25,1,30.48,30.05,44,15,45,0.00
2013-2-2,49.0,37.4,24.0,44.6,-29.9,-63.3,96,22,1,30.54,30.06,20,8,21,0.00
2013-2-3,55.0,47.0,40.0,45.9,-42.6,-53.3,96,3,1,30.09,29.89,31,10,31,0.00
2013-2-4,48.0,41.8,33.0,-30.0,-52.0,-57.7,5,1,1,30.22,30.06,17,8,17,0.00
2013-2-5,64.0,51.9,43.0,51.5,-43.8,-51.5,64,2,1,30.12,29.93,23,10,23,0.00
2013-2-6,65.0,53.7,49.0,9.8,-44.2,-47.8,14,1,1,30.27,30.03,26,10,26,0.00
2013-2-7,56.0,51.8,48.0,-43.5,-46.0,-48.4,1,1,1,30.30,29.80,37,19,42,1.34
2013-2-8,59.0,54.4,49.0,-41.7,-44.5,-48.4,1,1,1,30.05,29.57,39,16,41,0.53
2013-2-9,55.0,45.8,38.0,46.2,-41.9,-54.6,97,6,1,30.44,30.05,25,11,32,0.00
2013-2-10,56.0,47.2,39.0,-43.5,-48.9,-54.0,1,1,1,30.52,30.28,19,11,20,0.00
2013-2-11,66.0,60.0,55.0,-37.5,-41.1,-44.1,1,1,1,30.33,29.98,28,14,35,0.11
2013-2-12,62.0,56.6,50.0,-40.5,-43.1,-47.2,1,1,1,30.12,29.97,19,9,30,0.25
2013-2-13,50.0,49.4,48.0,-47.2,-47.6,-48.4,1,1,1,30.05,29.90,16,8,19,0.28
2013-2-24,64.0,54.9,49.0,52.8,-42.6,-47.8,67,2,1,30.05,29.90,22,8,22,0.01
2013-2-25,49.0,44.4,39.0,6.3,-49.8,-54.0,20,1,1,30.24,30.05,33,14,33,0.00
2013-2-26,65.0,55.1,44.0,-38.1,-44.1,-50.9,1,1,1,30.13,29.61,38,20,38,0.79
2013-2-27,69.0,55.1,49.0,52.6,-30.2,-47.8,56,9,1,30.26,29.64,26,13,35,0.00
2013-2-28,50.0,49.2,49.0,-47.2,-47.7,-47.8,1,1,1,29.81,29.78,24,11,25,0.00
2013-10-5,69.0,69.0,69.0,52.6,52.6,52.6,56,56,56,30.26,30.26,14,14,17,0.00